sensor_id;sensor_type;location;lat;lon;timestamp;P1;durP1;ratioP1;P2;durP2;ratioP2
64395;SDS011;50717;53.360;6.290;2022-11-15T00:00:06;53.42;;;29.45;;
64395;SDS011;50717;53.360;6.290;2022-11-15T00:02:32;54.40;;;30.00;;
64395;SDS011;50717;53.360;6.290;2022-11-15T00:04:57;51.47;;;28.65;;
64395;SDS011;50717;53.360;6.290;2022-11-15T00:07:23;52.38;;;28.98;;
64395;SDS011;50717;53.360;6.290;2022-11-15T00:09:49;49.85;;;28.88;;
64395;SDS011;50717;53.360;6.290;2022-11-15T00:12:14;52.20;;;29.55;;
64395;SDS011;50717;53.360;6.290;2022-11-15T00:14:40;56.45;;;29.77;;
64395;SDS011;50717;53.360;6.290;2022-11-15T00:17:05;47.45;;;28.35;;
64395;SDS011;50717;53.360;6.290;2022-11-15T00:19:31;51.92;;;28.77;;
64395;SDS011;50717;53.360;6.290;2022-11-15T00:21:57;51.63;;;29.27;;
64395;SDS011;50717;53.360;6.290;2022-11-15T00:24:23;48.78;;;28.02;;
64395;SDS011;50717;53.360;6.290;2022-11-15T00:26:48;46.25;;;28.25;;
64395;SDS011;50717;53.360;6.290;2022-11-15T00:29:14;52.58;;;28.45;;
64395;SDS011;50717;53.360;6.290;2022-11-15T00:31:39;49.25;;;28.50;;
64395;SDS011;50717;53.360;6.290;2022-11-15T00:34:05;46.30;;;28.20;;
64395;SDS011;50717;53.360;6.290;2022-11-15T00:36:32;51.70;;;27.65;;
64395;SDS011;50717;53.360;6.290;2022-11-15T00:38:58;49.70;;;28.10;;
64395;SDS011;50717;53.360;6.290;2022-11-15T00:41:24;49.15;;;27.25;;
64395;SDS011;50717;53.360;6.290;2022-11-15T00:43:50;46.35;;;27.20;;
64395;SDS011;50717;53.360;6.290;2022-11-15T00:46:15;48.13;;;26.20;;
64395;SDS011;50717;53.360;6.290;2022-11-15T00:48:41;47.08;;;27.10;;
64395;SDS011;50717;53.360;6.290;2022-11-15T00:51:07;55.33;;;28.00;;
64395;SDS011;50717;53.360;6.290;2022-11-15T00:53:32;46.15;;;25.70;;
64395;SDS011;50717;53.360;6.290;2022-11-15T00:55:58;47.03;;;27.13;;
64395;SDS011;50717;53.360;6.290;2022-11-15T00:58:23;45.90;;;26.73;;
64395;SDS011;50717;53.360;6.290;2022-11-15T01:00:49;48.42;;;27.25;;
64395;SDS011;50717;53.360;6.290;2022-11-15T01:03:15;48.55;;;26.85;;
64395;SDS011;50717;53.360;6.290;2022-11-15T01:05:40;48.28;;;27.67;;
64395;SDS011;50717;53.360;6.290;2022-11-15T01:08:06;52.22;;;29.02;;
64395;SDS011;50717;53.360;6.290;2022-11-15T01:10:36;46.47;;;27.38;;
64395;SDS011;50717;53.360;6.290;2022-11-15T01:13:02;49.58;;;27.40;;
64395;SDS011;50717;53.360;6.290;2022-11-15T01:15:27;55.03;;;28.48;;
64395;SDS011;50717;53.360;6.290;2022-11-15T01:17:53;46.90;;;26.92;;
64395;SDS011;50717;53.360;6.290;2022-11-15T01:22:45;46.78;;;27.45;;
64395;SDS011;50717;53.360;6.290;2022-11-15T01:25:11;44.75;;;26.75;;
64395;SDS011;50717;53.360;6.290;2022-11-15T01:27:36;50.50;;;27.88;;
64395;SDS011;50717;53.360;6.290;2022-11-15T01:30:02;48.90;;;26.67;;
64395;SDS011;50717;53.360;6.290;2022-11-15T01:32:29;41.13;;;26.33;;
64395;SDS011;50717;53.360;6.290;2022-11-15T01:34:55;44.85;;;28.10;;
64395;SDS011;50717;53.360;6.290;2022-11-15T01:37:20;45.70;;;27.13;;
64395;SDS011;50717;53.360;6.290;2022-11-15T01:39:46;48.45;;;29.00;;
64395;SDS011;50717;53.360;6.290;2022-11-15T01:42:12;44.63;;;27.73;;
64395;SDS011;50717;53.360;6.290;2022-11-15T01:44:42;44.28;;;27.45;;
64395;SDS011;50717;53.360;6.290;2022-11-15T01:47:13;43.88;;;26.65;;
64395;SDS011;50717;53.360;6.290;2022-11-15T01:52:25;40.55;;;26.48;;
64395;SDS011;50717;53.360;6.290;2022-11-15T01:54:56;44.95;;;27.73;;
64395;SDS011;50717;53.360;6.290;2022-11-15T01:57:23;43.55;;;26.95;;
64395;SDS011;50717;53.360;6.290;2022-11-15T01:59:49;40.35;;;26.02;;
64395;SDS011;50717;53.360;6.290;2022-11-15T02:02:15;41.17;;;27.13;;
64395;SDS011;50717;53.360;6.290;2022-11-15T02:04:42;45.47;;;28.15;;
64395;SDS011;50717;53.360;6.290;2022-11-15T02:07:12;48.15;;;27.88;;
64395;SDS011;50717;53.360;6.290;2022-11-15T02:09:40;46.67;;;29.45;;
64395;SDS011;50717;53.360;6.290;2022-11-15T02:12:07;46.20;;;29.67;;
64395;SDS011;50717;53.360;6.290;2022-11-15T02:14:35;50.95;;;30.33;;
64395;SDS011;50717;53.360;6.290;2022-11-15T02:30:47;43.35;;;28.08;;
64395;SDS011;50717;53.360;6.290;2022-11-15T02:36:09;45.65;;;28.25;;
64395;SDS011;50717;53.360;6.290;2022-11-15T02:41:26;45.80;;;28.80;;
64395;SDS011;50717;53.360;6.290;2022-11-15T02:49:22;47.75;;;27.77;;
64395;SDS011;50717;53.360;6.290;2022-11-15T02:51:51;50.75;;;28.60;;
64395;SDS011;50717;53.360;6.290;2022-11-15T02:54:21;45.83;;;27.88;;
64395;SDS011;50717;53.360;6.290;2022-11-15T02:56:48;48.95;;;27.90;;
64395;SDS011;50717;53.360;6.290;2022-11-15T03:07:23;43.22;;;25.17;;
64395;SDS011;50717;53.360;6.290;2022-11-15T03:10:11;41.90;;;25.50;;
64395;SDS011;50717;53.360;6.290;2022-11-15T03:12:55;45.38;;;25.85;;
64395;SDS011;50717;53.360;6.290;2022-11-15T03:15:27;47.55;;;26.63;;
64395;SDS011;50717;53.360;6.290;2022-11-15T03:17:59;50.10;;;25.88;;
64395;SDS011;50717;53.360;6.290;2022-11-15T03:20:29;49.75;;;26.20;;
64395;SDS011;50717;53.360;6.290;2022-11-15T03:22:56;49.28;;;25.58;;
64395;SDS011;50717;53.360;6.290;2022-11-15T03:25:29;52.08;;;25.70;;
64395;SDS011;50717;53.360;6.290;2022-11-15T03:27:57;51.97;;;26.88;;
64395;SDS011;50717;53.360;6.290;2022-11-15T03:30:26;62.00;;;28.35;;
64395;SDS011;50717;53.360;6.290;2022-11-15T03:32:53;57.92;;;27.40;;
64395;SDS011;50717;53.360;6.290;2022-11-15T03:35:22;59.33;;;28.30;;
64395;SDS011;50717;53.360;6.290;2022-11-15T03:37:53;55.13;;;26.75;;
64395;SDS011;50717;53.360;6.290;2022-11-15T03:40:25;55.33;;;26.52;;
64395;SDS011;50717;53.360;6.290;2022-11-15T03:43:00;57.60;;;28.02;;
64395;SDS011;50717;53.360;6.290;2022-11-15T03:45:35;65.60;;;28.73;;
64395;SDS011;50717;53.360;6.290;2022-11-15T03:48:13;58.90;;;27.75;;
64395;SDS011;50717;53.360;6.290;2022-11-15T03:50:44;60.60;;;29.73;;
64395;SDS011;50717;53.360;6.290;2022-11-15T03:53:12;70.32;;;28.83;;
64395;SDS011;50717;53.360;6.290;2022-11-15T03:55:39;60.60;;;30.23;;
64395;SDS011;50717;53.360;6.290;2022-11-15T03:58:04;67.72;;;29.70;;
64395;SDS011;50717;53.360;6.290;2022-11-15T04:00:31;67.22;;;29.15;;
64395;SDS011;50717;53.360;6.290;2022-11-15T04:02:57;70.70;;;30.67;;
64395;SDS011;50717;53.360;6.290;2022-11-15T04:05:22;63.72;;;29.80;;
64395;SDS011;50717;53.360;6.290;2022-11-15T04:07:48;59.50;;;29.13;;
64395;SDS011;50717;53.360;6.290;2022-11-15T04:10:14;66.70;;;28.38;;
64395;SDS011;50717;53.360;6.290;2022-11-15T04:12:41;68.57;;;29.52;;
64395;SDS011;50717;53.360;6.290;2022-11-15T04:15:10;63.95;;;28.95;;
64395;SDS011;50717;53.360;6.290;2022-11-15T04:17:39;70.20;;;28.90;;
64395;SDS011;50717;53.360;6.290;2022-11-15T04:20:09;63.60;;;28.40;;
64395;SDS011;50717;53.360;6.290;2022-11-15T04:23:05;64.50;;;27.92;;
64395;SDS011;50717;53.360;6.290;2022-11-15T04:25:55;65.68;;;28.08;;
64395;SDS011;50717;53.360;6.290;2022-11-15T04:28:23;65.72;;;30.02;;
64395;SDS011;50717;53.360;6.290;2022-11-15T04:30:48;62.30;;;28.48;;
64395;SDS011;50717;53.360;6.290;2022-11-15T04:33:14;69.38;;;30.98;;
64395;SDS011;50717;53.360;6.290;2022-11-15T04:35:41;66.45;;;29.70;;
64395;SDS011;50717;53.360;6.290;2022-11-15T04:38:08;66.28;;;29.83;;
64395;SDS011;50717;53.360;6.290;2022-11-15T04:40:35;63.13;;;29.55;;
64395;SDS011;50717;53.360;6.290;2022-11-15T04:43:01;68.20;;;29.73;;
64395;SDS011;50717;53.360;6.290;2022-11-15T04:45:27;68.32;;;28.15;;
64395;SDS011;50717;53.360;6.290;2022-11-15T04:47:53;70.78;;;28.58;;
64395;SDS011;50717;53.360;6.290;2022-11-15T04:50:18;64.47;;;29.35;;
64395;SDS011;50717;53.360;6.290;2022-11-15T04:52:50;68.63;;;29.15;;
64395;SDS011;50717;53.360;6.290;2022-11-15T04:55:17;73.22;;;30.70;;
64395;SDS011;50717;53.360;6.290;2022-11-15T04:57:42;66.18;;;28.98;;
64395;SDS011;50717;53.360;6.290;2022-11-15T05:00:13;71.60;;;30.45;;
64395;SDS011;50717;53.360;6.290;2022-11-15T05:02:41;76.35;;;29.85;;
64395;SDS011;50717;53.360;6.290;2022-11-15T05:05:25;73.93;;;30.27;;
64395;SDS011;50717;53.360;6.290;2022-11-15T05:07:51;80.05;;;32.22;;
64395;SDS011;50717;53.360;6.290;2022-11-15T05:10:16;76.32;;;31.55;;
64395;SDS011;50717;53.360;6.290;2022-11-15T05:12:42;81.18;;;30.90;;
64395;SDS011;50717;53.360;6.290;2022-11-15T05:15:08;80.93;;;30.70;;
64395;SDS011;50717;53.360;6.290;2022-11-15T05:17:34;78.78;;;31.10;;
64395;SDS011;50717;53.360;6.290;2022-11-15T05:20:00;76.53;;;31.10;;
64395;SDS011;50717;53.360;6.290;2022-11-15T05:22:26;77.10;;;30.08;;
64395;SDS011;50717;53.360;6.290;2022-11-15T05:27:17;76.68;;;28.90;;
64395;SDS011;50717;53.360;6.290;2022-11-15T05:29:43;83.85;;;31.25;;
64395;SDS011;50717;53.360;6.290;2022-11-15T05:32:09;80.10;;;31.23;;
64395;SDS011;50717;53.360;6.290;2022-11-15T05:34:36;81.28;;;29.83;;
64395;SDS011;50717;53.360;6.290;2022-11-15T05:37:02;85.70;;;32.45;;
64395;SDS011;50717;53.360;6.290;2022-11-15T05:41:55;86.20;;;31.75;;
64395;SDS011;50717;53.360;6.290;2022-11-15T05:44:25;79.35;;;30.75;;
64395;SDS011;50717;53.360;6.290;2022-11-15T05:46:52;92.60;;;32.38;;
64395;SDS011;50717;53.360;6.290;2022-11-15T05:49:20;87.72;;;32.72;;
64395;SDS011;50717;53.360;6.290;2022-11-15T05:51:49;92.53;;;32.13;;
64395;SDS011;50717;53.360;6.290;2022-11-15T05:54:16;96.63;;;31.10;;
64395;SDS011;50717;53.360;6.290;2022-11-15T05:56:44;98.85;;;33.10;;
64395;SDS011;50717;53.360;6.290;2022-11-15T05:59:10;101.30;;;34.25;;
64395;SDS011;50717;53.360;6.290;2022-11-15T06:01:36;106.28;;;32.42;;
64395;SDS011;50717;53.360;6.290;2022-11-15T06:04:04;111.35;;;33.60;;
64395;SDS011;50717;53.360;6.290;2022-11-15T06:06:29;125.53;;;35.35;;
64395;SDS011;50717;53.360;6.290;2022-11-15T06:08:55;109.28;;;34.85;;
64395;SDS011;50717;53.360;6.290;2022-11-15T06:11:21;124.25;;;35.75;;
64395;SDS011;50717;53.360;6.290;2022-11-15T06:13:46;115.13;;;34.40;;
64395;SDS011;50717;53.360;6.290;2022-11-15T06:16:12;114.43;;;36.35;;
64395;SDS011;50717;53.360;6.290;2022-11-15T06:18:38;139.98;;;36.88;;
64395;SDS011;50717;53.360;6.290;2022-11-15T06:21:04;131.82;;;36.05;;
64395;SDS011;50717;53.360;6.290;2022-11-15T06:25:57;147.60;;;38.33;;
64395;SDS011;50717;53.360;6.290;2022-11-15T06:28:24;144.82;;;37.47;;
64395;SDS011;50717;53.360;6.290;2022-11-15T06:30:49;149.13;;;38.58;;
64395;SDS011;50717;53.360;6.290;2022-11-15T06:33:15;166.25;;;40.22;;
64395;SDS011;50717;53.360;6.290;2022-11-15T06:35:41;175.65;;;39.90;;
64395;SDS011;50717;53.360;6.290;2022-11-15T06:38:07;173.18;;;40.00;;
64395;SDS011;50717;53.360;6.290;2022-11-15T06:40:35;155.95;;;39.45;;
64395;SDS011;50717;53.360;6.290;2022-11-15T06:43:01;207.30;;;43.03;;
64395;SDS011;50717;53.360;6.290;2022-11-15T06:45:28;239.63;;;46.78;;
64395;SDS011;50717;53.360;6.290;2022-11-15T06:47:53;215.88;;;45.30;;
64395;SDS011;50717;53.360;6.290;2022-11-15T06:50:19;235.88;;;45.38;;
64395;SDS011;50717;53.360;6.290;2022-11-15T06:52:45;203.88;;;43.55;;
64395;SDS011;50717;53.360;6.290;2022-11-15T06:55:10;245.68;;;46.05;;
64395;SDS011;50717;53.360;6.290;2022-11-15T06:57:36;247.55;;;47.45;;
64395;SDS011;50717;53.360;6.290;2022-11-15T07:00:03;226.88;;;47.03;;
64395;SDS011;50717;53.360;6.290;2022-11-15T07:02:29;229.93;;;48.60;;
64395;SDS011;50717;53.360;6.290;2022-11-15T07:04:55;248.80;;;47.90;;
64395;SDS011;50717;53.360;6.290;2022-11-15T07:07:21;240.30;;;48.72;;
64395;SDS011;50717;53.360;6.290;2022-11-15T07:09:47;232.75;;;47.78;;
64395;SDS011;50717;53.360;6.290;2022-11-15T07:12:12;256.65;;;49.03;;
64395;SDS011;50717;53.360;6.290;2022-11-15T07:14:38;228.32;;;47.90;;
64395;SDS011;50717;53.360;6.290;2022-11-15T07:17:04;235.18;;;48.72;;
64395;SDS011;50717;53.360;6.290;2022-11-15T07:19:30;261.35;;;56.20;;
64395;SDS011;50717;53.360;6.290;2022-11-15T07:21:56;285.67;;;53.22;;
64395;SDS011;50717;53.360;6.290;2022-11-15T07:24:22;273.75;;;53.58;;
64395;SDS011;50717;53.360;6.290;2022-11-15T07:26:47;260.35;;;53.72;;
64395;SDS011;50717;53.360;6.290;2022-11-15T07:29:13;264.05;;;55.22;;
64395;SDS011;50717;53.360;6.290;2022-11-15T07:31:39;226.25;;;51.13;;
64395;SDS011;50717;53.360;6.290;2022-11-15T07:34:04;262.23;;;52.17;;
64395;SDS011;50717;53.360;6.290;2022-11-15T07:36:30;284.42;;;55.38;;
64395;SDS011;50717;53.360;6.290;2022-11-15T07:38:56;266.55;;;53.83;;
64395;SDS011;50717;53.360;6.290;2022-11-15T07:41:21;254.90;;;55.17;;
64395;SDS011;50717;53.360;6.290;2022-11-15T07:43:50;251.35;;;52.78;;
64395;SDS011;50717;53.360;6.290;2022-11-15T07:46:16;257.20;;;54.00;;
64395;SDS011;50717;53.360;6.290;2022-11-15T07:48:42;231.20;;;52.78;;
64395;SDS011;50717;53.360;6.290;2022-11-15T07:51:10;227.43;;;52.22;;
64395;SDS011;50717;53.360;6.290;2022-11-15T07:53:39;213.88;;;52.08;;
64395;SDS011;50717;53.360;6.290;2022-11-15T07:56:06;239.50;;;54.17;;
64395;SDS011;50717;53.360;6.290;2022-11-15T07:58:32;221.05;;;51.65;;
64395;SDS011;50717;53.360;6.290;2022-11-15T08:01:01;180.77;;;49.95;;
64395;SDS011;50717;53.360;6.290;2022-11-15T08:03:28;194.25;;;50.13;;
64395;SDS011;50717;53.360;6.290;2022-11-15T08:05:54;180.80;;;49.40;;
64395;SDS011;50717;53.360;6.290;2022-11-15T08:08:20;174.18;;;53.28;;
64395;SDS011;50717;53.360;6.290;2022-11-15T08:10:48;183.40;;;52.38;;
64395;SDS011;50717;53.360;6.290;2022-11-15T08:13:14;155.23;;;52.00;;
64395;SDS011;50717;53.360;6.290;2022-11-15T08:15:40;171.52;;;49.78;;
64395;SDS011;50717;53.360;6.290;2022-11-15T08:18:08;158.18;;;50.35;;
64395;SDS011;50717;53.360;6.290;2022-11-15T08:20:36;172.10;;;50.50;;
64395;SDS011;50717;53.360;6.290;2022-11-15T08:23:03;163.07;;;48.53;;
64395;SDS011;50717;53.360;6.290;2022-11-15T08:25:30;146.90;;;46.78;;
64395;SDS011;50717;53.360;6.290;2022-11-15T08:27:59;151.35;;;47.55;;
64395;SDS011;50717;53.360;6.290;2022-11-15T08:30:26;142.18;;;48.03;;
64395;SDS011;50717;53.360;6.290;2022-11-15T08:32:53;128.32;;;46.95;;
64395;SDS011;50717;53.360;6.290;2022-11-15T08:35:20;142.02;;;48.80;;
64395;SDS011;50717;53.360;6.290;2022-11-15T08:37:46;134.77;;;46.53;;
64395;SDS011;50717;53.360;6.290;2022-11-15T08:40:12;115.60;;;45.50;;
64395;SDS011;50717;53.360;6.290;2022-11-15T08:42:39;114.28;;;42.17;;
64395;SDS011;50717;53.360;6.290;2022-11-15T08:47:31;117.20;;;43.80;;
64395;SDS011;50717;53.360;6.290;2022-11-15T08:49:56;109.60;;;43.67;;
64395;SDS011;50717;53.360;6.290;2022-11-15T08:52:22;118.45;;;45.15;;
64395;SDS011;50717;53.360;6.290;2022-11-15T08:54:48;117.38;;;44.17;;
64395;SDS011;50717;53.360;6.290;2022-11-15T08:57:14;103.60;;;41.38;;
64395;SDS011;50717;53.360;6.290;2022-11-15T08:59:39;112.38;;;44.30;;
64395;SDS011;50717;53.360;6.290;2022-11-15T09:02:05;104.38;;;43.70;;
64395;SDS011;50717;53.360;6.290;2022-11-15T09:04:31;108.57;;;43.75;;
64395;SDS011;50717;53.360;6.290;2022-11-15T09:06:57;100.50;;;40.50;;
64395;SDS011;50717;53.360;6.290;2022-11-15T09:09:22;94.68;;;41.17;;
64395;SDS011;50717;53.360;6.290;2022-11-15T09:11:48;93.53;;;39.50;;
64395;SDS011;50717;53.360;6.290;2022-11-15T09:14:15;95.32;;;40.22;;
64395;SDS011;50717;53.360;6.290;2022-11-15T09:16:41;89.82;;;39.05;;
64395;SDS011;50717;53.360;6.290;2022-11-15T09:19:07;85.93;;;37.80;;
64395;SDS011;50717;53.360;6.290;2022-11-15T09:21:32;81.07;;;37.25;;
64395;SDS011;50717;53.360;6.290;2022-11-15T09:23:58;78.65;;;39.22;;
64395;SDS011;50717;53.360;6.290;2022-11-15T09:26:24;85.70;;;37.10;;
64395;SDS011;50717;53.360;6.290;2022-11-15T09:28:50;75.97;;;36.83;;
64395;SDS011;50717;53.360;6.290;2022-11-15T09:31:16;76.25;;;36.78;;
64395;SDS011;50717;53.360;6.290;2022-11-15T09:33:44;69.80;;;36.75;;
64395;SDS011;50717;53.360;6.290;2022-11-15T09:36:11;73.38;;;35.92;;
64395;SDS011;50717;53.360;6.290;2022-11-15T09:38:37;74.32;;;35.00;;
64395;SDS011;50717;53.360;6.290;2022-11-15T09:43:41;63.35;;;33.85;;
64395;SDS011;50717;53.360;6.290;2022-11-15T09:48:51;60.60;;;31.90;;
64395;SDS011;50717;53.360;6.290;2022-11-15T09:51:44;56.85;;;34.03;;
64395;SDS011;50717;53.360;6.290;2022-11-15T09:54:32;62.35;;;32.22;;
64395;SDS011;50717;53.360;6.290;2022-11-15T10:02:34;61.15;;;31.65;;
64395;SDS011;50717;53.360;6.290;2022-11-15T10:05:04;54.25;;;31.00;;
64395;SDS011;50717;53.360;6.290;2022-11-15T10:10:25;57.13;;;31.33;;
64395;SDS011;50717;53.360;6.290;2022-11-15T10:12:52;58.40;;;31.35;;
64395;SDS011;50717;53.360;6.290;2022-11-15T10:20:38;48.05;;;28.05;;
64395;SDS011;50717;53.360;6.290;2022-11-15T10:23:16;55.78;;;27.45;;
64395;SDS011;50717;53.360;6.290;2022-11-15T10:25:44;50.72;;;28.48;;
64395;SDS011;50717;53.360;6.290;2022-11-15T10:30:40;49.13;;;27.05;;
64395;SDS011;50717;53.360;6.290;2022-11-15T10:38:50;42.88;;;26.42;;
64395;SDS011;50717;53.360;6.290;2022-11-15T10:41:38;46.47;;;25.92;;
64395;SDS011;50717;53.360;6.290;2022-11-15T10:46:47;45.70;;;25.30;;
64395;SDS011;50717;53.360;6.290;2022-11-15T10:49:28;50.60;;;24.92;;
64395;SDS011;50717;53.360;6.290;2022-11-15T10:52:00;43.67;;;24.60;;
64395;SDS011;50717;53.360;6.290;2022-11-15T10:54:40;39.08;;;24.10;;
64395;SDS011;50717;53.360;6.290;2022-11-15T10:59:46;42.97;;;24.10;;
64395;SDS011;50717;53.360;6.290;2022-11-15T11:04:54;38.67;;;23.00;;
64395;SDS011;50717;53.360;6.290;2022-11-15T11:07:20;39.45;;;23.45;;
64395;SDS011;50717;53.360;6.290;2022-11-15T11:09:56;41.70;;;23.13;;
64395;SDS011;50717;53.360;6.290;2022-11-15T11:12:27;40.50;;;21.88;;
64395;SDS011;50717;53.360;6.290;2022-11-15T11:14:55;38.78;;;22.85;;
64395;SDS011;50717;53.360;6.290;2022-11-15T11:20:25;38.15;;;22.88;;
64395;SDS011;50717;53.360;6.290;2022-11-15T11:28:29;38.08;;;21.38;;
64395;SDS011;50717;53.360;6.290;2022-11-15T11:42:29;29.70;;;17.45;;
64395;SDS011;50717;53.360;6.290;2022-11-15T11:45:24;29.48;;;18.05;;
64395;SDS011;50717;53.360;6.290;2022-11-15T11:51:02;29.17;;;14.98;;
64395;SDS011;50717;53.360;6.290;2022-11-15T11:54:01;23.25;;;14.57;;
64395;SDS011;50717;53.360;6.290;2022-11-15T11:56:36;25.98;;;14.63;;
64395;SDS011;50717;53.360;6.290;2022-11-15T12:02:21;22.88;;;12.65;;
64395;SDS011;50717;53.360;6.290;2022-11-15T12:07:35;18.33;;;10.40;;
64395;SDS011;50717;53.360;6.290;2022-11-15T12:10:08;17.67;;;9.75;;
64395;SDS011;50717;53.360;6.290;2022-11-15T12:12:48;18.55;;;9.30;;
64395;SDS011;50717;53.360;6.290;2022-11-15T12:15:31;18.63;;;9.43;;
64395;SDS011;50717;53.360;6.290;2022-11-15T12:18:04;18.48;;;9.60;;
64395;SDS011;50717;53.360;6.290;2022-11-15T12:20:34;18.75;;;10.25;;
64395;SDS011;50717;53.360;6.290;2022-11-15T12:23:11;21.58;;;9.70;;
64395;SDS011;50717;53.360;6.290;2022-11-15T12:25:46;17.13;;;9.88;;
64395;SDS011;50717;53.360;6.290;2022-11-15T12:33:46;20.02;;;9.15;;
64395;SDS011;50717;53.360;6.290;2022-11-15T12:39:04;15.90;;;8.73;;
64395;SDS011;50717;53.360;6.290;2022-11-15T12:41:32;18.10;;;8.80;;
64395;SDS011;50717;53.360;6.290;2022-11-15T12:43:59;15.80;;;7.72;;
64395;SDS011;50717;53.360;6.290;2022-11-15T13:17:39;8.77;;;4.15;;
64395;SDS011;50717;53.360;6.290;2022-11-15T13:22:50;9.55;;;3.88;;
64395;SDS011;50717;53.360;6.290;2022-11-15T13:31:43;7.20;;;3.80;;
64395;SDS011;50717;53.360;6.290;2022-11-15T13:34:01;9.57;;;4.53;;
64395;SDS011;50717;53.360;6.290;2022-11-15T13:36:39;32.50;;;19.20;;
64395;SDS011;50717;53.360;6.290;2022-11-15T13:39:06;19.42;;;11.20;;
64395;SDS011;50717;53.360;6.290;2022-11-15T13:41:52;14.40;;;11.52;;
64395;SDS011;50717;53.360;6.290;2022-11-15T13:44:21;9.07;;;7.68;;
64395;SDS011;50717;53.360;6.290;2022-11-15T13:49:32;13.73;;;6.72;;
64395;SDS011;50717;53.360;6.290;2022-11-15T13:51:59;15.40;;;9.68;;
64395;SDS011;50717;53.360;6.290;2022-11-15T13:54:29;17.15;;;13.70;;
64395;SDS011;50717;53.360;6.290;2022-11-15T13:57:02;11.82;;;6.88;;
64395;SDS011;50717;53.360;6.290;2022-11-15T13:59:31;11.20;;;5.40;;
64395;SDS011;50717;53.360;6.290;2022-11-15T14:02:11;12.10;;;4.82;;
64395;SDS011;50717;53.360;6.290;2022-11-15T14:04:45;7.32;;;3.90;;
64395;SDS011;50717;53.360;6.290;2022-11-15T14:07:16;7.88;;;4.40;;
64395;SDS011;50717;53.360;6.290;2022-11-15T14:09:46;10.32;;;4.70;;
64395;SDS011;50717;53.360;6.290;2022-11-15T14:12:25;25.83;;;15.40;;
64395;SDS011;50717;53.360;6.290;2022-11-15T14:15:00;19.05;;;14.73;;
64395;SDS011;50717;53.360;6.290;2022-11-15T14:17:43;9.90;;;5.55;;
64395;SDS011;50717;53.360;6.290;2022-11-15T14:20:19;10.00;;;5.57;;
64395;SDS011;50717;53.360;6.290;2022-11-15T14:22:54;9.82;;;4.53;;
64395;SDS011;50717;53.360;6.290;2022-11-15T14:25:22;8.60;;;4.75;;
64395;SDS011;50717;53.360;6.290;2022-11-15T14:30:38;19.55;;;13.93;;
64395;SDS011;50717;53.360;6.290;2022-11-15T14:33:18;14.05;;;9.90;;
64395;SDS011;50717;53.360;6.290;2022-11-15T14:35:46;10.10;;;6.75;;
64395;SDS011;50717;53.360;6.290;2022-11-15T14:38:12;12.98;;;6.95;;
64395;SDS011;50717;53.360;6.290;2022-11-15T14:40:38;11.00;;;7.53;;
64395;SDS011;50717;53.360;6.290;2022-11-15T14:43:04;14.35;;;6.40;;
64395;SDS011;50717;53.360;6.290;2022-11-15T14:45:29;10.82;;;6.18;;
64395;SDS011;50717;53.360;6.290;2022-11-15T14:47:55;9.07;;;6.07;;
64395;SDS011;50717;53.360;6.290;2022-11-15T14:50:21;10.23;;;5.63;;
64395;SDS011;50717;53.360;6.290;2022-11-15T14:52:47;8.55;;;6.47;;
64395;SDS011;50717;53.360;6.290;2022-11-15T14:55:18;12.95;;;6.20;;
64395;SDS011;50717;53.360;6.290;2022-11-15T14:57:54;11.48;;;6.50;;
64395;SDS011;50717;53.360;6.290;2022-11-15T15:00:20;11.02;;;6.70;;
64395;SDS011;50717;53.360;6.290;2022-11-15T15:02:46;12.43;;;8.90;;
64395;SDS011;50717;53.360;6.290;2022-11-15T15:05:17;7.95;;;4.70;;
64395;SDS011;50717;53.360;6.290;2022-11-15T15:07:48;9.30;;;5.63;;
64395;SDS011;50717;53.360;6.290;2022-11-15T15:10:14;10.27;;;5.35;;
64395;SDS011;50717;53.360;6.290;2022-11-15T15:12:41;7.63;;;4.60;;
64395;SDS011;50717;53.360;6.290;2022-11-15T15:17:41;9.40;;;5.85;;
64395;SDS011;50717;53.360;6.290;2022-11-15T15:22:34;8.23;;;6.15;;
64395;SDS011;50717;53.360;6.290;2022-11-15T15:24:59;6.72;;;5.28;;
64395;SDS011;50717;53.360;6.290;2022-11-15T15:27:25;6.22;;;4.55;;
64395;SDS011;50717;53.360;6.290;2022-11-15T15:29:51;9.98;;;5.55;;
64395;SDS011;50717;53.360;6.290;2022-11-15T15:32:16;7.18;;;5.00;;
64395;SDS011;50717;53.360;6.290;2022-11-15T15:34:42;9.02;;;4.97;;
64395;SDS011;50717;53.360;6.290;2022-11-15T15:39:47;11.98;;;7.32;;
64395;SDS011;50717;53.360;6.290;2022-11-15T15:42:13;12.75;;;7.75;;
64395;SDS011;50717;53.360;6.290;2022-11-15T15:44:39;7.82;;;4.80;;
64395;SDS011;50717;53.360;6.290;2022-11-15T15:47:10;11.10;;;7.43;;
64395;SDS011;50717;53.360;6.290;2022-11-15T15:49:46;6.28;;;4.10;;
64395;SDS011;50717;53.360;6.290;2022-11-15T15:52:13;5.20;;;3.50;;
64395;SDS011;50717;53.360;6.290;2022-11-15T15:54:39;8.07;;;4.57;;
64395;SDS011;50717;53.360;6.290;2022-11-15T15:57:06;6.07;;;2.75;;
64395;SDS011;50717;53.360;6.290;2022-11-15T15:59:33;4.75;;;3.13;;
64395;SDS011;50717;53.360;6.290;2022-11-15T16:01:58;10.25;;;4.90;;
64395;SDS011;50717;53.360;6.290;2022-11-15T16:04:24;12.02;;;3.92;;
64395;SDS011;50717;53.360;6.290;2022-11-15T16:06:51;8.73;;;4.90;;
64395;SDS011;50717;53.360;6.290;2022-11-15T16:09:20;5.88;;;4.47;;
64395;SDS011;50717;53.360;6.290;2022-11-15T16:12:05;8.32;;;4.45;;
64395;SDS011;50717;53.360;6.290;2022-11-15T16:14:31;6.82;;;4.35;;
64395;SDS011;50717;53.360;6.290;2022-11-15T16:16:57;6.25;;;4.30;;
64395;SDS011;50717;53.360;6.290;2022-11-15T16:19:23;10.15;;;8.07;;
64395;SDS011;50717;53.360;6.290;2022-11-15T16:21:49;9.40;;;5.38;;
64395;SDS011;50717;53.360;6.290;2022-11-15T16:24:17;7.47;;;4.53;;
64395;SDS011;50717;53.360;6.290;2022-11-15T16:26:43;9.35;;;5.47;;
64395;SDS011;50717;53.360;6.290;2022-11-15T16:29:10;10.10;;;6.15;;
64395;SDS011;50717;53.360;6.290;2022-11-15T16:31:37;9.93;;;6.75;;
64395;SDS011;50717;53.360;6.290;2022-11-15T16:34:03;12.77;;;7.68;;
64395;SDS011;50717;53.360;6.290;2022-11-15T16:36:30;10.38;;;8.43;;
64395;SDS011;50717;53.360;6.290;2022-11-15T16:38:57;10.85;;;7.80;;
64395;SDS011;50717;53.360;6.290;2022-11-15T16:41:23;9.90;;;8.25;;
64395;SDS011;50717;53.360;6.290;2022-11-15T16:43:49;10.90;;;7.40;;
64395;SDS011;50717;53.360;6.290;2022-11-15T16:48:46;12.02;;;8.23;;
64395;SDS011;50717;53.360;6.290;2022-11-15T16:51:12;15.20;;;8.48;;
64395;SDS011;50717;53.360;6.290;2022-11-15T16:53:38;11.25;;;7.90;;
64395;SDS011;50717;53.360;6.290;2022-11-15T16:56:12;12.30;;;9.27;;
64395;SDS011;50717;53.360;6.290;2022-11-15T16:58:42;9.93;;;8.10;;
64395;SDS011;50717;53.360;6.290;2022-11-15T17:01:10;13.60;;;8.10;;
64395;SDS011;50717;53.360;6.290;2022-11-15T17:03:47;11.75;;;8.00;;
64395;SDS011;50717;53.360;6.290;2022-11-15T17:06:13;12.90;;;8.23;;
64395;SDS011;50717;53.360;6.290;2022-11-15T17:08:39;12.13;;;8.88;;
64395;SDS011;50717;53.360;6.290;2022-11-15T17:13:33;13.40;;;8.23;;
64395;SDS011;50717;53.360;6.290;2022-11-15T17:16:03;11.30;;;8.57;;
64395;SDS011;50717;53.360;6.290;2022-11-15T17:18:49;9.57;;;6.80;;
64395;SDS011;50717;53.360;6.290;2022-11-15T17:21:16;10.88;;;7.30;;
64395;SDS011;50717;53.360;6.290;2022-11-15T17:23:44;10.48;;;7.22;;
64395;SDS011;50717;53.360;6.290;2022-11-15T17:26:10;10.07;;;7.22;;
64395;SDS011;50717;53.360;6.290;2022-11-15T17:28:37;10.18;;;7.10;;